Time;durP1;ratioP1;P1;durP2;ratioP2;P2;SDS_P1;SDS_P2;PMS_P1;PMS_P2;Temp;Humidity;BMP_temperature;BMP_pressure;BME280_temperature;BME280_humidity;BME280_pressure;Samples;Min_cycle;Max_cycle;Signal;HPM_P1;HPM_P2
2020/12/06 00:00:51;;;;;;;37.15;17.08;;;;;;;9.13;90.28;101223.97;6195688;28;20225;-80
2020/12/06 00:04:08;;;;;;;38.58;17.67;;;;;;;9.13;90.80;101223.13;6212273;28;20248;-83
2020/12/06 00:07:13;;;;;;;34.03;17.20;;;;;;;9.00;91.38;101228.47;6214400;28;20213;-79
2020/12/06 00:10:18;;;;;;;32.63;18.13;;;;;;;9.28;90.36;101232.03;6195567;28;20530;-79
2020/12/06 00:13:23;;;;;;;38.55;18.95;;;;;;;9.16;90.67;101225.44;6197131;28;20197;-80
2020/12/06 00:16:28;;;;;;;31.58;17.95;;;;;;;9.13;91.20;101234.00;6194350;28;20226;-80
2020/12/06 00:19:32;;;;;;;32.65;18.33;;;;;;;9.20;91.19;101226.72;6193456;28;20211;-79
2020/12/06 00:22:36;;;;;;;35.47;17.73;;;;;;;9.07;91.57;101245.69;6197475;28;20241;-77
2020/12/06 00:25:40;;;;;;;36.65;18.25;;;;;;;9.03;91.81;101249.84;6195325;28;20558;-79
2020/12/06 00:28:43;;;;;;;40.88;17.95;;;;;;;9.05;91.87;101245.03;6197002;28;20194;-80
2020/12/06 00:31:49;;;;;;;39.35;17.65;;;;;;;8.98;92.33;101252.31;6195566;28;20206;-80
2020/12/06 00:34:52;;;;;;;40.17;18.02;;;;;;;9.04;92.24;101251.53;6184637;28;20194;-79
2020/12/06 00:37:55;;;;;;;34.92;18.17;;;;;;;9.03;92.53;101249.84;6198560;28;20277;-78
2020/12/06 00:40:59;;;;;;;37.70;18.58;;;;;;;9.08;92.16;101236.47;6200501;28;20280;-79
2020/12/06 00:44:04;;;;;;;37.03;18.05;;;;;;;9.10;91.80;101245.28;6194535;28;20213;-79
2020/12/06 00:47:09;;;;;;;35.30;16.98;;;;;;;9.17;91.65;101235.28;6196480;28;20186;-79
2020/12/06 00:50:13;;;;;;;36.88;18.02;;;;;;;9.07;91.67;101234.78;6197938;28;20797;-81
2020/12/06 00:53:21;;;;;;;38.67;18.00;;;;;;;9.03;92.33;101223.47;6182592;28;20572;-80
2020/12/06 00:56:24;;;;;;;36.15;16.65;;;;;;;9.13;91.54;101234.00;6201933;28;20652;-79
2020/12/06 00:59:28;;;;;;;33.53;17.27;;;;;;;8.94;93.08;101243.69;6196439;28;20209;-79
2020/12/06 01:02:32;;;;;;;35.97;17.85;;;;;;;9.05;92.48;101236.88;6199398;28;20275;-80
2020/12/06 01:05:35;;;;;;;42.28;18.75;;;;;;;8.95;93.23;101233.66;6197748;28;20650;-79
2020/12/06 01:08:40;;;;;;;35.83;17.58;;;;;;;8.96;92.68;101217.13;6181128;28;20213;-78
2020/12/06 01:11:48;;;;;;;35.28;17.67;;;;;;;9.13;91.96;101236.72;6201191;28;20209;-81
2020/12/06 01:14:51;;;;;;;34.88;17.58;;;;;;;8.96;92.07;101199.97;6200751;28;20190;-80
2020/12/06 01:17:56;;;;;;;42.50;18.30;;;;;;;9.09;92.20;101232.72;6203207;28;20199;-79
2020/12/06 01:20:59;;;;;;;32.00;17.20;;;;;;;9.21;91.63;101240.16;6189211;28;20210;-79
2020/12/06 01:24:04;;;;;;;34.53;17.88;;;;;;;8.94;92.49;101221.06;6197583;28;20206;-80
2020/12/06 01:27:08;;;;;;;34.15;18.13;;;;;;;8.97;92.45;101239.72;6200110;28;20234;-78
2020/12/06 01:30:11;;;;;;;40.20;19.10;;;;;;;8.99;93.19;101251.28;6200456;28;20264;-80
2020/12/06 01:33:23;;;;;;;38.65;18.45;;;;;;;8.99;92.75;101257.56;6179469;28;20580;-79
2020/12/06 01:36:28;;;;;;;36.45;18.48;;;;;;;9.08;92.83;101263.69;6196314;28;20194;-79
2020/12/06 01:39:31;;;;;;;37.33;18.55;;;;;;;9.11;92.09;101263.31;6197108;28;20190;-79
2020/12/06 01:42:34;;;;;;;38.33;18.38;;;;;;;8.91;91.97;101243.25;6199059;28;20233;-79
2020/12/06 01:45:38;;;;;;;36.65;18.20;;;;;;;8.85;93.70;101266.66;6197832;28;20195;-79
2020/12/06 01:48:42;;;;;;;41.47;18.92;;;;;;;8.96;93.07;101262.56;6197898;28;20224;-79
2020/12/06 01:51:49;;;;;;;39.33;18.40;;;;;;;8.91;93.59;101246.78;6191704;28;20206;-80
2020/12/06 01:54:53;;;;;;;37.17;18.83;;;;;;;8.77;93.56;101237.69;6198469;28;20751;-79
2020/12/06 01:58:01;;;;;;;43.08;20.05;;;;;;;8.87;93.37;101239.22;6193055;28;20194;-79
2020/12/06 02:01:08;;;;;;;39.13;18.55;;;;;;;8.98;93.24;101238.72;6199145;28;20296;-79
2020/12/06 02:04:17;;;;;;;37.33;19.67;;;;;;;9.02;92.86;101248.16;6194027;28;20224;-79
2020/12/06 02:07:23;;;;;;;38.45;18.85;;;;;;;9.03;92.56;101238.97;6197215;28;20206;-80
2020/12/06 02:10:27;;;;;;;37.90;18.63;;;;;;;9.00;91.67;101206.69;6180713;28;20645;-78
2020/12/06 02:13:32;;;;;;;41.38;19.48;;;;;;;9.15;91.95;101240.94;6195288;28;20202;-79
2020/12/06 02:16:35;;;;;;;37.65;19.33;;;;;;;9.24;91.44;101236.19;6199658;28;20205;-78
2020/12/06 02:19:39;;;;;;;42.45;20.00;;;;;;;8.92;92.77;101225.88;6196554;28;20226;-79
2020/12/06 02:22:44;;;;;;;40.00;19.58;;;;;;;9.14;92.25;101238.44;6198974;28;20224;-80
2020/12/06 02:25:47;;;;;;;37.60;19.52;;;;;;;9.01;92.71;101239.16;6198298;28;20244;-80
2020/12/06 02:28:50;;;;;;;36.05;18.25;;;;;;;8.98;93.09;101257.75;6196411;28;20206;-79
2020/12/06 02:31:54;;;;;;;37.90;19.85;;;;;;;9.13;92.25;101244.91;6180381;28;20206;-80
2020/12/06 02:34:57;;;;;;;37.03;19.45;;;;;;;9.05;92.78;101258.66;6199895;28;20232;-79
2020/12/06 02:38:01;;;;;;;43.55;19.35;;;;;;;8.94;93.51;101264.63;6198327;28;20193;-80
2020/12/06 02:41:05;;;;;;;41.67;19.42;;;;;;;9.04;93.11;101268.69;6198242;28;20257;-79
2020/12/06 02:44:11;;;;;;;41.33;19.08;;;;;;;9.09;92.29;101265.41;6197271;28;20680;-80
2020/12/06 02:47:14;;;;;;;37.15;18.55;;;;;;;9.00;92.89;101266.56;6193869;28;20199;-79
2020/12/06 02:50:19;;;;;;;38.35;19.58;;;;;;;8.99;93.81;101273.06;6185665;28;20265;-81
2020/12/06 02:53:25;;;;;;;38.67;20.05;;;;;;;9.04;93.16;101278.75;6197012;28;20260;-79
2020/12/06 02:56:29;;;;;;;41.50;20.35;;;;;;;8.74;93.36;101251.69;6182227;28;20202;-80
2020/12/06 02:59:32;;;;;;;40.70;19.98;;;;;;;9.06;93.02;101287.56;6184720;28;20225;-78
2020/12/06 03:02:37;;;;;;;40.10;19.67;;;;;;;9.05;93.03;101274.97;6199713;28;20224;-80
2020/12/06 03:05:40;;;;;;;38.40;19.13;;;;;;;8.97;93.64;101289.56;6196216;28;20199;-79
2020/12/06 03:08:45;;;;;;;37.38;19.00;;;;;;;8.98;93.73;101295.84;6198830;28;20198;-79
2020/12/06 03:11:49;;;;;;;42.65;20.35;;;;;;;8.97;93.66;101283.28;6196180;28;20281;-79
2020/12/06 03:14:52;;;;;;;42.67;19.75;;;;;;;8.81;93.29;101252.59;6196607;28;20236;-80
2020/12/06 03:17:55;;;;;;;41.35;19.90;;;;;;;9.03;92.53;101282.50;6198407;28;20193;-79
2020/12/06 03:20:59;;;;;;;38.35;18.95;;;;;;;8.73;93.91;101260.88;6186781;28;20220;-81
2020/12/06 03:24:04;;;;;;;41.53;20.70;;;;;;;9.11;92.58;101285.09;6196514;28;20747;-79
2020/12/06 03:27:09;;;;;;;41.85;20.20;;;;;;;8.92;92.34;101253.09;6193640;28;20229;-79
2020/12/06 03:30:12;;;;;;;43.97;20.52;;;;;;;8.99;93.34;101297.56;6196261;28;20221;-78
2020/12/06 03:33:21;;;;;;;37.33;19.77;;;;;;;9.17;92.30;101316.94;6209826;28;20185;-82
2020/12/06 03:36:24;;;;;;;40.75;20.77;;;;;;;9.17;92.37;101316.94;6224909;28;20201;-77
2020/12/06 03:39:28;;;;;;;41.63;19.65;;;;;;;9.09;92.64;101314.41;6201853;28;20560;-79
2020/12/06 03:42:32;;;;;;;42.55;21.73;;;;;;;9.06;92.78;101320.22;6198261;28;20239;-78
2020/12/06 03:45:36;;;;;;;42.70;20.60;;;;;;;9.05;92.86;101329.41;6196019;28;20425;-79
2020/12/06 03:48:39;;;;;;;44.05;19.45;;;;;;;9.14;92.55;101317.38;6170657;28;20227;-79
2020/12/06 03:51:43;;;;;;;42.85;20.85;;;;;;;9.02;92.43;101310.75;6202682;28;20209;-78
2020/12/06 03:54:47;;;;;;;41.25;20.35;;;;;;;8.99;93.13;101320.16;6181209;28;20202;-78
2020/12/06 03:57:50;;;;;;;44.42;21.60;;;;;;;8.98;92.81;101323.91;6211138;28;20202;-79
2020/12/06 04:00:53;;;;;;;42.45;21.17;;;;;;;8.96;93.40;101325.16;6204540;28;20203;-79
2020/12/06 04:03:57;;;;;;;38.42;20.00;;;;;;;8.94;93.21;101327.19;6195286;28;20248;-80
2020/12/06 04:07:01;;;;;;;41.03;20.27;;;;;;;9.05;93.04;101321.25;6195000;28;20765;-80
2020/12/06 04:10:07;;;;;;;40.40;21.08;;;;;;;8.98;92.84;101328.53;6192186;28;20203;-79
2020/12/06 04:13:16;;;;;;;40.25;20.83;;;;;;;8.92;93.03;101329.28;6196256;28;20190;-79
2020/12/06 04:16:20;;;;;;;38.33;20.67;;;;;;;9.01;93.06;101323.53;6197073;28;20202;-79
2020/12/06 04:19:23;;;;;;;38.97;20.88;;;;;;;8.97;93.10;101340.44;6189801;28;20304;-79
2020/12/06 04:22:26;;;;;;;42.35;21.42;;;;;;;8.94;93.38;101338.09;6191662;28;20225;-80
2020/12/06 04:25:30;;;;;;;44.92;21.40;;;;;;;8.89;93.38;101340.56;6195201;28;20248;-79
2020/12/06 04:28:34;;;;;;;48.72;21.25;;;;;;;9.00;93.23;101326.44;6194526;28;20554;-80
2020/12/06 04:31:37;;;;;;;39.00;20.63;;;;;;;9.00;92.70;101326.44;6199704;28;20247;-79
2020/12/06 04:34:40;;;;;;;47.03;20.48;;;;;;;8.97;92.61;101337.72;6200904;28;20248;-79
2020/12/06 04:37:44;;;;;;;42.53;20.65;;;;;;;8.87;93.47;101334.47;6194610;28;20608;-79
2020/12/06 04:40:48;;;;;;;44.25;21.70;;;;;;;8.79;92.45;101292.75;6191037;28;20194;-80
2020/12/06 04:43:52;;;;;;;44.08;20.35;;;;;;;8.95;91.62;101307.13;6196183;28;20206;-78
2020/12/06 04:47:00;;;;;;;44.28;21.13;;;;;;;9.02;91.97;101329.81;6200260;28;20233;-79
2020/12/06 04:50:06;;;;;;;39.05;20.90;;;;;;;9.02;92.39;101351.56;6195261;28;20226;-79
2020/12/06 04:53:17;;;;;;;40.05;20.85;;;;;;;9.17;91.87;101360.50;6196090;28;20201;-80
2020/12/06 04:56:23;;;;;;;42.30;20.70;;;;;;;9.14;92.12;101356.28;6197746;28;20217;-78
2020/12/06 04:59:28;;;;;;;42.90;21.25;;;;;;;9.06;91.72;101363.78;6197091;28;20317;-79
2020/12/06 05:02:34;;;;;;;45.22;21.45;;;;;;;9.11;91.62;101361.31;6191416;28;20206;-80
2020/12/06 05:05:41;;;;;;;40.38;21.42;;;;;;;9.08;91.73;101358.97;6197054;28;20206;-79
2020/12/06 05:08:46;;;;;;;39.85;20.85;;;;;;;9.01;92.53;101366.25;6181302;28;20199;-78
2020/12/06 05:11:50;;;;;;;39.88;21.33;;;;;;;8.79;92.26;101333.56;6194776;28;20221;-80
2020/12/06 05:14:53;;;;;;;40.90;22.17;;;;;;;9.04;92.58;101376.75;6181788;28;20249;-79
2020/12/06 05:17:58;;;;;;;46.40;22.27;;;;;;;8.85;92.22;101355.59;6195080;28;20197;-81
2020/12/06 05:21:02;;;;;;;48.60;22.92;;;;;;;9.02;91.86;101382.38;6196573;28;20195;-79
2020/12/06 05:24:06;;;;;;;46.22;23.05;;;;;;;8.94;91.35;101365.31;6192355;28;20229;-80
2020/12/06 05:27:13;;;;;;;42.88;22.02;;;;;;;9.18;91.53;101400.31;6196817;28;20238;-80
2020/12/06 05:30:17;;;;;;;43.95;22.08;;;;;;;9.21;91.11;101405.38;6195138;28;20198;-78
2020/12/06 05:33:29;;;;;;;42.03;21.95;;;;;;;9.11;91.16;101399.41;6190307;28;20237;-78
2020/12/06 05:36:33;;;;;;;43.08;21.70;;;;;;;9.31;90.27;101405.91;6194840;28;20269;-79
2020/12/06 05:39:36;;;;;;;41.63;22.50;;;;;;;9.27;91.02;101420.97;6172767;28;20661;-79
2020/12/06 05:42:42;;;;;;;42.90;22.73;;;;;;;9.33;90.60;101409.25;6188713;28;20645;-80
2020/12/06 05:45:46;;;;;;;43.47;22.00;;;;;;;9.20;91.34;101409.13;6183527;28;20205;-77
2020/12/06 05:48:49;;;;;;;45.50;22.30;;;;;;;9.14;91.07;101396.31;6185424;28;20222;-79
2020/12/06 05:51:53;;;;;;;44.10;22.20;;;;;;;9.30;90.37;101415.94;6192046;28;20266;-78
2020/12/06 05:54:58;;;;;;;45.25;22.98;;;;;;;9.34;89.99;101422.69;6199773;28;20646;-79
2020/12/06 05:58:23;;;;;;;46.63;22.88;;;;;;;9.19;91.05;101415.63;6180086;28;20206;-80
2020/12/06 06:01:27;;;;;;;46.28;21.77;;;;;;;9.22;90.76;101404.31;6195040;28;20202;-78
2020/12/06 06:04:36;;;;;;;43.88;21.92;;;;;;;9.18;90.48;101412.06;6195422;28;20661;-79
2020/12/06 06:07:42;;;;;;;41.70;22.30;;;;;;;9.22;90.66;101434.28;6196940;28;20244;-78
2020/12/06 06:11:01;;;;;;;41.53;22.08;;;;;;;8.83;90.45;101364.78;6200916;28;20599;-79
2020/12/06 06:14:22;;;;;;;40.05;21.85;;;;;;;8.95;90.67;101402.38;6192134;28;20305;-80
2020/12/06 06:17:26;;;;;;;40.70;21.20;;;;;;;9.30;90.14;101442.31;6199751;28;20209;-79
2020/12/06 06:20:30;;;;;;;42.75;22.13;;;;;;;9.27;89.90;101437.28;6191397;28;20191;-81
2020/12/06 06:23:34;;;;;;;51.83;22.55;;;;;;;9.12;90.89;101434.59;6196303;28;20727;-78
2020/12/06 06:26:43;;;;;;;44.15;20.95;;;;;;;9.11;90.16;101418.47;6196971;28;20226;-80
2020/12/06 06:29:50;;;;;;;51.83;22.55;;;;;;;9.29;90.13;101418.88;6201156;28;20198;-79
2020/12/06 06:32:55;;;;;;;43.72;22.02;;;;;;;9.27;89.97;101426.41;6198080;28;20198;-80
2020/12/06 06:36:01;;;;;;;43.38;22.67;;;;;;;9.17;90.40;101434.00;6198075;28;20186;-80
2020/12/06 06:39:18;;;;;;;51.85;23.08;;;;;;;9.24;89.79;101426.78;6200580;28;20218;-79
2020/12/06 06:42:26;;;;;;;44.38;23.05;;;;;;;9.08;89.99;101416.97;6194591;28;20210;-80
2020/12/06 06:45:42;;;;;;;44.70;21.55;;;;;;;9.20;89.77;101439.06;6197008;28;20191;-80
2020/12/06 06:48:47;;;;;;;45.58;23.50;;;;;;;9.05;91.02;101454.63;6199402;28;20329;-80
2020/12/06 06:51:53;;;;;;;41.40;21.73;;;;;;;9.16;91.12;101460.44;6198050;28;20205;-79
2020/12/06 06:54:58;;;;;;;41.90;22.35;;;;;;;9.04;90.46;101436.63;6197091;28;20225;-80
2020/12/06 06:58:02;;;;;;;48.13;23.52;;;;;;;8.51;91.42;101359.81;6183645;28;20205;-80
2020/12/06 07:01:23;;;;;;;45.35;23.60;;;;;;;9.15;89.87;101455.16;6198543;28;20225;-80
2020/12/06 07:04:27;;;;;;;44.65;23.58;;;;;;;9.29;89.52;101468.75;6201354;28;20594;-77
2020/12/06 07:07:44;;;;;;;47.80;22.88;;;;;;;8.71;89.86;101382.66;6191038;28;20205;-79
2020/12/06 07:10:49;;;;;;;47.80;23.25;;;;;;;9.08;90.06;101470.56;6177673;28;20653;-79
2020/12/06 07:13:52;;;;;;;49.35;23.35;;;;;;;9.12;90.65;101477.31;6191130;28;20263;-78
2020/12/06 07:16:57;;;;;;;47.22;24.13;;;;;;;9.20;89.46;101474.47;6191691;28;20209;-79
2020/12/06 07:20:04;;;;;;;44.10;23.98;;;;;;;9.08;89.96;101465.13;6192063;28;20198;-79
2020/12/06 07:23:14;;;;;;;49.67;23.85;;;;;;;9.08;89.60;101462.41;6194432;28;20232;-79
2020/12/06 07:26:17;;;;;;;49.35;24.83;;;;;;;9.33;88.31;101480.91;6189717;28;20241;-79
2020/12/06 07:29:21;;;;;;;41.80;23.02;;;;;;;9.12;89.41;101493.66;6186850;28;20194;-78
2020/12/06 07:32:26;;;;;;;48.15;24.52;;;;;;;9.26;89.24;101495.50;6192776;28;20653;-78
2020/12/06 07:35:29;;;;;;;48.92;24.83;;;;;;;9.23;89.41;101495.88;6192484;28;20209;-79
2020/12/06 07:38:35;;;;;;;49.63;24.77;;;;;;;9.24;89.85;101484.81;6185261;28;20202;-78
2020/12/06 07:41:45;;;;;;;50.30;24.42;;;;;;;9.12;89.72;101499.09;6169424;28;20191;-79
2020/12/06 07:44:49;;;;;;;48.03;23.33;;;;;;;9.07;89.74;101487.94;6193505;28;20218;-79
2020/12/06 07:47:54;;;;;;;44.95;23.88;;;;;;;9.18;89.91;101514.66;6186456;28;20221;-79
2020/12/06 07:50:57;;;;;;;45.83;24.15;;;;;;;9.13;89.28;101489.91;6188401;28;20612;-81
2020/12/06 07:54:01;;;;;;;49.47;24.27;;;;;;;9.01;90.03;101486.00;6198097;28;20364;-80
2020/12/06 07:57:10;;;;;;;53.08;24.73;;;;;;;9.12;90.17;101505.38;6197200;28;20261;-78
2020/12/06 08:00:15;;;;;;;51.78;24.45;;;;;;;8.96;90.17;101488.44;6194043;28;20313;-79
2020/12/06 08:03:30;;;;;;;49.03;24.27;;;;;;;9.19;89.83;101516.38;6197110;28;20219;-81
2020/12/06 08:06:37;;;;;;;52.20;25.67;;;;;;;9.22;89.65;101510.50;6201397;28;20296;-80
2020/12/06 08:09:42;;;;;;;50.55;24.55;;;;;;;8.92;90.41;101484.41;6201443;28;20196;-80
2020/12/06 08:12:49;;;;;;;49.50;24.02;;;;;;;9.11;90.62;101527.38;6194476;28;20217;-78
2020/12/06 08:15:52;;;;;;;56.25;24.48;;;;;;;9.19;89.94;101532.69;6191851;28;20466;-78
2020/12/06 08:19:03;;;;;;;50.72;24.90;;;;;;;9.28;89.95;101539.72;6195880;28;20372;-78
2020/12/06 08:22:08;;;;;;;46.83;24.20;;;;;;;9.16;90.91;101533.09;6208963;28;20198;-79
2020/12/06 08:25:11;;;;;;;46.20;23.85;;;;;;;9.30;89.43;101534.91;6170732;28;20683;-78
2020/12/06 08:28:20;;;;;;;45.92;23.52;;;;;;;9.13;89.63;101522.56;6183630;28;20225;-78
2020/12/06 08:31:24;;;;;;;48.40;23.80;;;;;;;9.14;90.22;101538.69;6183628;28;20210;-78
2020/12/06 08:34:28;;;;;;;50.15;24.13;;;;;;;9.30;89.91;101532.19;6181099;28;20210;-78
2020/12/06 08:37:35;;;;;;;42.08;22.88;;;;;;;9.26;89.86;101541.78;6185603;28;20419;-77
2020/12/06 08:40:39;;;;;;;43.63;22.00;;;;;;;9.22;90.01;101549.47;6181526;28;20205;-78
2020/12/06 08:43:44;;;;;;;50.60;23.42;;;;;;;9.14;90.56;101562.38;6190368;28;20213;-79
2020/12/06 08:46:52;;;;;;;49.03;23.95;;;;;;;9.02;90.80;101536.66;6181979;28;20661;-79
2020/12/06 08:50:05;;;;;;;49.63;24.95;;;;;;;9.17;90.10;101561.97;6188686;28;20225;-80
2020/12/06 08:53:14;;;;;;;45.63;23.70;;;;;;;9.24;89.34;101562.94;6192099;28;20195;-77
2020/12/06 08:56:28;;;;;;;45.00;23.60;;;;;;;9.23;89.91;101566.66;6194858;28;20242;-79
2020/12/06 08:59:36;;;;;;;50.28;24.52;;;;;;;9.12;90.49;101558.97;6192047;28;20590;-76
2020/12/06 09:02:40;;;;;;;49.10;23.52;;;;;;;9.29;89.49;101560.47;6204888;28;20325;-80
2020/12/06 09:05:46;;;;;;;50.33;24.67;;;;;;;9.39;89.31;101566.47;6216961;28;21194;-81
2020/12/06 09:08:49;;;;;;;46.20;23.75;;;;;;;9.24;90.24;101568.38;6193813;28;20281;-79
2020/12/06 09:11:53;;;;;;;46.38;24.08;;;;;;;9.05;90.59;101541.72;6193435;28;20201;-79
2020/12/06 09:14:56;;;;;;;47.95;23.83;;;;;;;9.39;89.58;101566.47;6188315;28;20213;-77
2020/12/06 09:18:00;;;;;;;47.13;24.00;;;;;;;9.28;90.06;101565.06;6190363;28;20202;-79
2020/12/06 09:21:06;;;;;;;48.30;24.25;;;;;;;9.23;90.54;101583.00;6186561;28;20651;-78
2020/12/06 09:24:10;;;;;;;46.13;24.20;;;;;;;9.36;89.84;101583.19;6186650;28;20228;-78
2020/12/06 09:27:16;;;;;;;45.33;23.75;;;;;;;9.21;90.75;101593.25;6191446;28;20229;-77
2020/12/06 09:30:19;;;;;;;48.17;24.10;;;;;;;9.03;91.16;101571.03;6187615;28;20210;-79
2020/12/06 09:33:29;;;;;;;47.05;23.15;;;;;;;9.22;90.83;101597.63;6185702;28;20214;-79
2020/12/06 09:36:33;;;;;;;49.38;24.13;;;;;;;9.27;90.73;101600.69;6194912;28;20583;-80
2020/12/06 09:39:37;;;;;;;45.40;23.48;;;;;;;9.36;90.34;101599.50;6208390;28;20229;-78
2020/12/06 09:42:40;;;;;;;46.83;24.75;;;;;;;8.91;90.38;101546.16;6191560;28;20210;-80
2020/12/06 09:45:43;;;;;;;51.00;24.17;;;;;;;9.23;90.84;101599.34;6183103;28;20209;-79
2020/12/06 09:48:46;;;;;;;46.58;22.92;;;;;;;9.17;91.20;101600.94;6186588;28;20226;-80
2020/12/06 09:51:50;;;;;;;43.17;22.08;;;;;;;9.31;90.51;101607.41;6193200;28;20202;-79
2020/12/06 09:54:54;;;;;;;43.10;22.73;;;;;;;9.14;90.83;101616.84;6188866;28;20581;-79
2020/12/06 09:57:57;;;;;;;45.03;23.40;;;;;;;9.22;90.86;101603.09;6194120;28;20337;-79
2020/12/06 10:01:00;;;;;;;44.00;22.50;;;;;;;9.24;90.66;101614.66;6201897;28;20528;-79
2020/12/06 10:04:04;;;;;;;47.45;22.58;;;;;;;9.16;91.08;101599.28;6187722;28;20218;-78
2020/12/06 10:07:12;;;;;;;49.15;24.13;;;;;;;9.30;90.77;101611.16;6191569;28;20198;-81
2020/12/06 10:10:16;;;;;;;42.97;21.63;;;;;;;9.21;90.80;101621.34;6192582;28;20340;-77
2020/12/06 10:13:21;;;;;;;38.42;21.30;;;;;;;9.25;90.67;101613.59;6193883;28;20187;-78
2020/12/06 10:16:25;;;;;;;48.22;22.15;;;;;;;9.13;90.73;101604.25;6191688;28;20220;-79
2020/12/06 10:19:28;;;;;;;39.63;21.60;;;;;;;9.10;91.29;101621.78;6185763;28;20216;-80
2020/12/06 10:22:34;;;;;;;43.25;21.55;;;;;;;9.24;90.64;101606.50;6206797;28;20272;-79
2020/12/06 10:25:41;;;;;;;40.55;20.63;;;;;;;9.21;90.88;101628.66;6177411;28;20281;-79
2020/12/06 10:28:44;;;;;;;42.42;21.35;;;;;;;9.09;91.30;101614.66;6201887;28;20186;-78
2020/12/06 10:31:49;;;;;;;39.35;20.88;;;;;;;9.00;90.98;101582.28;6177773;28;20333;-77
2020/12/06 10:34:52;;;;;;;36.40;20.55;;;;;;;9.28;90.00;101607.78;6199005;28;20625;-79
2020/12/06 10:37:56;;;;;;;39.30;20.25;;;;;;;9.45;89.00;101614.69;6194467;28;20592;-77
2020/12/06 10:41:00;;;;;;;38.90;20.02;;;;;;;9.23;89.21;101599.34;6205627;28;20725;-80
2020/12/06 10:44:04;;;;;;;36.53;19.35;;;;;;;9.07;90.79;101626.75;6200325;28;20237;-80
2020/12/06 10:47:08;;;;;;;41.60;20.08;;;;;;;9.10;90.58;101604.63;6195898;28;20198;-80
2020/12/06 10:50:16;;;;;;;40.33;19.52;;;;;;;9.33;89.66;101616.22;6197159;28;20587;-79
2020/12/06 10:53:21;;;;;;;39.42;18.92;;;;;;;9.09;90.88;101622.81;6195761;28;20638;-79
2020/12/06 10:56:26;;;;;;;48.13;21.45;;;;;;;9.12;91.14;101618.88;6197951;28;20198;-79
2020/12/06 10:59:29;;;;;;;35.95;19.70;;;;;;;9.12;91.08;101616.16;6190735;28;20199;-78
2020/12/06 11:02:33;;;;;;;44.03;20.05;;;;;;;9.17;90.98;101614.56;6192167;28;20331;-78
2020/12/06 11:05:36;;;;;;;42.55;19.20;;;;;;;9.14;91.29;101605.94;6186327;28;20213;-78
2020/12/06 11:08:40;;;;;;;41.40;19.02;;;;;;;9.18;90.56;101596.34;6205107;28;20210;-79
2020/12/06 11:11:44;;;;;;;37.45;17.95;;;;;;;9.11;90.69;101589.97;6193434;28;20206;-80
2020/12/06 11:14:47;;;;;;;37.88;19.35;;;;;;;9.23;90.12;101593.91;6212780;28;20190;-79
2020/12/06 11:17:50;;;;;;;42.88;19.63;;;;;;;9.04;91.68;101605.38;6201364;28;20276;-80
2020/12/06 11:20:53;;;;;;;37.97;18.05;;;;;;;9.27;90.81;101595.22;6196847;28;20198;-79
2020/12/06 11:23:58;;;;;;;41.45;19.27;;;;;;;9.12;91.54;101597.09;6186595;28;20466;-79
2020/12/06 11:27:01;;;;;;;30.98;16.65;;;;;;;9.28;91.01;101596.91;6179049;28;20241;-78
2020/12/06 11:30:05;;;;;;;39.53;18.30;;;;;;;9.26;90.79;101583.47;6195071;28;20233;-79
2020/12/06 11:33:19;;;;;;;38.28;17.73;;;;;;;9.24;91.13;101590.16;6177220;28;20194;-78
2020/12/06 11:36:23;;;;;;;38.25;18.25;;;;;;;8.98;92.48;101590.66;6179505;28;20218;-80
2020/12/06 11:39:27;;;;;;;35.80;18.15;;;;;;;8.96;93.06;101597.31;6183918;28;20194;-80
2020/12/06 11:42:30;;;;;;;42.95;17.83;;;;;;;9.22;91.31;101592.19;6190623;28;20221;-78
2020/12/06 11:45:33;;;;;;;40.90;18.65;;;;;;;9.16;91.05;101595.69;6194339;28;20734;-78
2020/12/06 11:48:38;;;;;;;36.45;18.23;;;;;;;8.95;92.37;101590.16;6183604;28;20617;-78
2020/12/06 11:51:41;;;;;;;32.08;17.25;;;;;;;8.96;91.98;101576.34;6189438;28;20205;-78
2020/12/06 11:54:46;;;;;;;38.35;19.10;;;;;;;9.03;92.27;101603.69;6194444;28;20345;-79
2020/12/06 11:57:49;;;;;;;37.40;18.88;;;;;;;9.07;92.08;101604.97;6185783;28;20637;-76
2020/12/06 12:00:52;;;;;;;43.45;18.55;;;;;;;9.04;92.43;101599.94;6191744;28;20205;-76
2020/12/06 12:03:56;;;;;;;34.08;17.67;;;;;;;8.95;92.25;101601.06;6190937;28;20323;-79
2020/12/06 12:07:00;;;;;;;34.40;17.05;;;;;;;8.88;92.72;101594.69;6172706;28;20257;-78
2020/12/06 12:10:06;;;;;;;35.35;17.30;;;;;;;9.04;91.13;101598.03;6191185;28;20201;-79
2020/12/06 12:13:16;;;;;;;31.63;16.95;;;;;;;9.07;91.17;101596.81;6190257;28;20273;-80
2020/12/06 12:16:19;;;;;;;34.95;16.55;;;;;;;9.10;91.00;101578.25;6200193;28;20490;-79
2020/12/06 12:19:23;;;;;;;34.58;17.13;;;;;;;9.00;91.29;101593.16;6187590;28;20198;-77
2020/12/06 12:22:26;;;;;;;30.58;16.63;;;;;;;8.98;91.42;101597.97;6193782;28;20205;-77
2020/12/06 12:25:30;;;;;;;38.67;17.38;;;;;;;9.04;91.02;101606.22;6189227;28;20241;-80
2020/12/06 12:28:33;;;;;;;30.98;16.17;;;;;;;8.99;91.51;101616.81;6188024;28;20209;-78
2020/12/06 12:31:38;;;;;;;39.40;16.75;;;;;;;8.91;91.74;101606.03;6185909;28;20198;-77
2020/12/06 12:34:45;;;;;;;41.88;17.35;;;;;;;8.78;92.65;101595.78;6184172;28;20198;-76
2020/12/06 12:37:48;;;;;;;35.50;16.60;;;;;;;8.97;91.67;101604.44;6182518;28;20198;-79
2020/12/06 12:40:52;;;;;;;35.92;15.73;;;;;;;8.97;91.21;101598.97;6189443;28;20198;-78
2020/12/06 12:43:55;;;;;;;31.20;15.35;;;;;;;8.80;91.40;101584.75;6192989;28;20661;-78
2020/12/06 12:46:58;;;;;;;38.22;15.65;;;;;;;8.67;91.74;101582.66;6192981;28;20225;-80
2020/12/06 12:50:02;;;;;;;32.85;15.70;;;;;;;8.93;90.94;101587.66;6195365;28;20289;-78
2020/12/06 12:53:06;;;;;;;36.22;16.40;;;;;;;8.76;91.64;101592.41;6196259;28;20254;-81
2020/12/06 12:56:11;;;;;;;35.85;16.30;;;;;;;8.76;91.34;101592.41;6191324;28;20268;-80
2020/12/06 12:59:15;;;;;;;34.90;15.40;;;;;;;8.23;90.72;101497.44;6185500;28;20210;-80
2020/12/06 13:02:19;;;;;;;34.10;16.63;;;;;;;8.73;91.36;101598.22;6187395;28;20336;-77
2020/12/06 13:05:22;;;;;;;28.35;15.40;;;;;;;8.64;91.90;101599.34;6187846;28;20735;-78
2020/12/06 13:08:26;;;;;;;35.17;16.10;;;;;;;8.61;92.51;101588.84;6189700;28;20198;-78
2020/12/06 13:11:30;;;;;;;29.92;15.27;;;;;;;8.65;92.28;101587.44;6187874;28;20202;-78
2020/12/06 13:14:34;;;;;;;34.30;15.70;;;;;;;8.80;91.14;101596.47;6175209;28;20202;-79
2020/12/06 13:17:38;;;;;;;33.78;15.20;;;;;;;8.74;91.49;101594.47;6173946;28;20218;-76
2020/12/06 13:20:41;;;;;;;31.13;15.63;;;;;;;8.85;91.00;101595.06;6178881;28;20206;-79
2020/12/06 13:23:45;;;;;;;33.30;15.40;;;;;;;8.53;91.87;101575.31;6187043;28;20664;-78
2020/12/06 13:26:54;;;;;;;33.45;14.88;;;;;;;8.63;91.62;101592.22;6182636;28;20277;-79
2020/12/06 13:29:57;;;;;;;28.88;13.85;;;;;;;8.86;90.25;101602.19;6191823;28;20218;-80
2020/12/06 13:33:00;;;;;;;34.03;14.63;;;;;;;8.69;91.28;101601.50;6167911;28;20294;-79
2020/12/06 13:36:04;;;;;;;32.45;14.52;;;;;;;8.70;90.95;101597.78;6170861;28;20206;-79
2020/12/06 13:39:08;;;;;;;31.10;15.02;;;;;;;8.75;90.67;101601.63;6193714;28;20285;-77
2020/12/06 13:42:17;;;;;;;32.28;14.35;;;;;;;8.56;91.90;101602.16;6180077;28;20256;-76
2020/12/06 13:45:21;;;;;;;26.73;14.25;;;;;;;8.77;90.57;101598.72;6191476;28;20304;-78
2020/12/06 13:48:24;;;;;;;28.25;14.50;;;;;;;8.58;90.69;101591.94;6187497;28;20782;-76
2020/12/06 13:51:27;;;;;;;28.63;13.68;;;;;;;8.67;90.89;101601.72;6192343;28;20337;-80
2020/12/06 13:54:30;;;;;;;28.67;13.60;;;;;;;8.55;91.34;101605.91;6192594;28;20202;-82
2020/12/06 13:57:35;;;;;;;27.50;13.48;;;;;;;8.70;90.83;101595.91;6189188;28;20202;-79
2020/12/06 14:00:40;;;;;;;28.65;12.88;;;;;;;8.69;90.72;101594.19;6187281;28;20537;-77
2020/12/06 14:03:47;;;;;;;29.67;14.55;;;;;;;8.60;91.62;101592.59;6195468;28;20437;-77
2020/12/06 14:06:51;;;;;;;29.75;14.00;;;;;;;8.35;91.82;101566.66;6194123;28;20348;-79
2020/12/06 14:09:54;;;;;;;33.53;13.80;;;;;;;8.52;92.41;101611.72;6196159;28;20254;-77